Time;durP1;ratioP1;P1;durP2;ratioP2;P2;SDS_P1;SDS_P2;PMS_P1;PMS_P2;Temp;Humidity;BMP_temperature;BMP_pressure;BME280_temperature;BME280_humidity;BME280_pressure;Samples;Min_cycle;Max_cycle;Signal;HPM_P1;HPM_P2
2021/07/17 00:01:51;;;;;;;0.10;0.10;;;13.20;99.90;;;;;;20905794;28;20041;-47
2021/07/17 00:11:52;;;;;;;0.30;0.10;;;13.30;99.90;;;;;;20904452;28;20102;-46
2021/07/17 00:21:54;;;;;;;0.20;0.10;;;13.50;99.90;;;;;;20904529;28;20541;-51
2021/07/17 00:31:56;;;;;;;0.15;0.10;;;13.80;99.90;;;;;;20906625;28;20055;-47
2021/07/17 00:41:57;;;;;;;0.20;0.15;;;13.90;99.90;;;;;;20920419;28;20059;-45
2021/07/17 00:51:59;;;;;;;0.10;0.10;;;14.00;99.90;;;;;;20919931;28;20046;-46
2021/07/17 01:02:02;;;;;;;0.32;0.20;;;14.00;99.90;;;;;;20918856;28;20043;-46
2021/07/17 01:12:04;;;;;;;0.43;0.20;;;14.10;99.90;;;;;;20918214;28;20556;-46
2021/07/17 01:22:06;;;;;;;0.20;0.10;;;14.00;99.90;;;;;;20917553;28;20033;-46
2021/07/17 01:32:08;;;;;;;0.13;0.13;;;13.70;99.90;;;;;;20916601;28;20096;-47
2021/07/17 01:42:10;;;;;;;1.17;0.20;;;13.60;99.90;;;;;;20914186;28;20045;-46
2021/07/17 01:52:13;;;;;;;0.38;0.30;;;13.60;99.90;;;;;;20916222;28;20037;-47
2021/07/17 02:02:14;;;;;;;0.40;0.25;;;13.90;99.90;;;;;;20914035;28;20051;-50
2021/07/17 02:12:16;;;;;;;0.20;0.20;;;14.10;99.90;;;;;;20913460;28;20037;-45
2021/07/17 02:22:19;;;;;;;0.70;0.30;;;14.40;99.90;;;;;;20914018;28;20409;-47
2021/07/17 02:32:21;;;;;;;0.52;0.10;;;14.80;99.90;;;;;;20911915;28;20040;-46
2021/07/17 02:42:22;;;;;;;0.15;0.15;;;15.00;99.90;;;;;;20911177;28;20098;-47
2021/07/17 02:52:24;;;;;;;0.40;0.10;;;15.00;99.90;;;;;;20910056;28;20491;-49
2021/07/17 03:02:26;;;;;;;0.40;0.20;;;14.80;99.90;;;;;;20909266;28;20040;-47
2021/07/17 03:12:28;;;;;;;0.20;0.20;;;14.70;99.90;;;;;;20910105;28;20425;-46
2021/07/17 03:22:29;;;;;;;0.32;0.20;;;14.80;99.90;;;;;;20909238;28;20051;-48
2021/07/17 03:32:32;;;;;;;1.48;0.20;;;14.70;99.90;;;;;;20907421;28;20041;-47
2021/07/17 03:42:33;;;;;;;1.63;0.20;;;14.70;99.90;;;;;;20906381;28;20576;-45
2021/07/17 03:52:35;;;;;;;1.98;0.10;;;15.00;99.90;;;;;;20905543;28;20106;-49
2021/07/17 04:02:42;;;;;;;1.75;0.10;;;15.00;99.90;;;;;;20906528;28;20029;-44
2021/07/17 04:12:44;;;;;;;0.10;0.10;;;15.20;99.90;;;;;;20904182;28;20033;-47
2021/07/17 04:22:45;;;;;;;5.28;0.20;;;15.30;99.90;;;;;;20904336;28;20029;-47
2021/07/17 04:32:47;;;;;;;0.40;0.20;;;14.70;99.90;;;;;;20904101;28;20107;-45
2021/07/17 04:42:48;;;;;;;0.93;0.30;;;14.50;99.90;;;;;;20903655;28;20033;-47
2021/07/17 04:52:50;;;;;;;0.55;0.28;;;15.30;99.90;;;;;;20903047;28;20395;-48
2021/07/17 05:02:55;;;;;;;0.10;0.10;;;15.90;99.90;;;;;;20902795;28;20029;-46
2021/07/17 05:12:56;;;;;;;1.13;0.40;;;16.20;99.90;;;;;;20902158;28;20536;-47
2021/07/17 05:22:59;;;;;;;0.22;0.10;;;16.40;99.90;;;;;;20912316;28;20086;-46
2021/07/17 05:33:01;;;;;;;1.00;0.20;;;16.50;99.90;;;;;;20916943;28;20122;-46
2021/07/17 05:43:03;;;;;;;0.32;0.30;;;16.30;99.90;;;;;;20915951;28;20375;-48
2021/07/17 05:53:08;;;;;;;1.13;0.30;;;16.00;99.90;;;;;;20916187;28;20067;-46
2021/07/17 06:03:10;;;;;;;0.98;0.28;;;16.20;99.90;;;;;;20913765;28;20464;-48
2021/07/17 06:13:12;;;;;;;0.25;0.17;;;16.40;99.90;;;;;;20913753;28;20162;-45
2021/07/17 06:23:14;;;;;;;0.45;0.20;;;16.40;99.90;;;;;;20912898;28;20021;-45
2021/07/17 06:33:17;;;;;;;1.15;0.30;;;16.60;99.90;;;;;;20910772;28;20021;-47
2021/07/17 06:43:24;;;;;;;0.38;0.20;;;16.90;99.90;;;;;;20911138;28;20044;-45
2021/07/17 06:53:26;;;;;;;0.40;0.30;;;17.30;99.90;;;;;;20911601;28;20037;-47
2021/07/17 07:03:28;;;;;;;0.40;0.30;;;17.80;99.90;;;;;;20909693;28;20033;-48
2021/07/17 07:13:32;;;;;;;0.30;0.30;;;19.30;98.70;;;;;;20908557;28;20059;-45
2021/07/17 07:23:38;;;;;;;0.20;0.20;;;20.80;95.40;;;;;;20907882;28;20114;-46
2021/07/17 07:33:42;;;;;;;1.40;0.45;;;20.00;95.70;;;;;;20906215;28;20033;-51
2021/07/17 07:43:48;;;;;;;0.20;0.20;;;18.80;97.00;;;;;;20904750;28;20033;-47
2021/07/17 07:53:54;;;;;;;1.13;0.40;;;18.40;97.40;;;;;;20906855;28;20053;-46
2021/07/17 08:03:58;;;;;;;1.67;0.40;;;18.20;97.80;;;;;;20906028;28;20041;-47
2021/07/17 08:14:01;;;;;;;2.00;0.80;;;18.20;97.90;;;;;;20905780;28;20430;-45
2021/07/17 08:24:07;;;;;;;0.90;0.70;;;18.00;97.80;;;;;;20905132;28;20045;-45
2021/07/17 08:34:11;;;;;;;0.50;0.30;;;17.80;97.40;;;;;;20904812;28;20037;-49
2021/07/17 08:44:15;;;;;;;0.50;0.50;;;18.20;96.80;;;;;;20904340;28;20037;-46
2021/07/17 08:54:25;;;;;;;0.63;0.40;;;18.90;97.70;;;;;;20902972;28;20053;-47
2021/07/17 09:04:29;;;;;;;0.30;0.30;;;19.40;95.90;;;;;;20919777;28;20081;-45
2021/07/17 09:14:35;;;;;;;0.50;0.40;;;19.70;96.00;;;;;;20918760;28;20490;-47
2021/07/17 09:24:38;;;;;;;0.73;0.32;;;21.20;94.00;;;;;;20918017;28;20110;-44
2021/07/17 09:34:40;;;;;;;1.13;0.70;;;21.40;93.20;;;;;;20915565;28;20174;-52
2021/07/17 09:44:42;;;;;;;0.95;0.60;;;21.30;95.40;;;;;;20916003;28;20182;-51
2021/07/17 09:55:08;;;;;;;0.40;0.35;;;20.90;94.40;;;;;;20913172;28;20053;-45
2021/07/17 10:05:36;;;;;;;2.20;1.00;;;20.20;93.10;;;;;;20912093;28;20436;-48
2021/07/17 10:15:38;;;;;;;1.00;0.80;;;19.90;93.90;;;;;;20912828;28;20049;-47
2021/07/17 10:25:41;;;;;;;1.30;0.90;;;20.00;94.10;;;;;;20912783;28;20029;-48
2021/07/17 10:35:46;;;;;;;1.13;0.63;;;20.00;93.70;;;;;;20912274;28;20033;-47
2021/07/17 10:45:48;;;;;;;0.90;0.75;;;19.80;94.70;;;;;;20911673;28;20025;-46
2021/07/17 10:55:50;;;;;;;0.68;0.50;;;20.20;92.60;;;;;;20910428;28;20045;-50
2021/07/17 11:05:52;;;;;;;4.55;0.77;;;20.70;92.80;;;;;;20909256;28;20028;-46
2021/07/17 11:15:55;;;;;;;1.00;0.57;;;20.50;92.10;;;;;;20908737;28;20099;-45
2021/07/17 11:26:05;;;;;;;0.75;0.55;;;20.60;92.90;;;;;;20908367;28;20048;-47
2021/07/17 11:36:28;;;;;;;0.98;0.77;;;20.90;93.30;;;;;;20907448;28;20036;-49
2021/07/17 11:46:34;;;;;;;1.67;0.75;;;20.80;92.70;;;;;;20906257;28;20555;-51
2021/07/17 11:56:38;;;;;;;1.60;0.75;;;20.90;93.70;;;;;;20904617;28;20118;-47
2021/07/17 12:06:41;;;;;;;4.00;0.90;;;21.20;93.10;;;;;;20905187;28;20037;-47
2021/07/17 12:16:44;;;;;;;1.23;1.08;;;20.90;96.50;;;;;;20904652;28;20040;-51
2021/07/17 12:26:45;;;;;;;0.65;0.60;;;20.10;95.80;;;;;;20903353;28;20432;-48
2021/07/17 12:36:48;;;;;;;1.55;0.95;;;19.90;96.50;;;;;;20903933;28;20037;-47
2021/07/17 12:47:04;;;;;;;1.10;0.90;;;20.40;97.50;;;;;;20903364;28;20045;-49
2021/07/17 12:57:07;;;;;;;1.30;0.80;;;21.30;93.70;;;;;;20903379;28;20053;-48
2021/07/17 13:07:08;;;;;;;1.45;0.85;;;21.30;93.10;;;;;;20915640;28;20029;-52
2021/07/17 13:17:15;;;;;;;1.88;0.82;;;21.30;91.80;;;;;;20903448;28;20446;-49
2021/07/17 13:27:24;;;;;;;1.20;0.80;;;21.50;92.00;;;;;;20895435;28;20044;-48
2021/07/17 13:37:26;;;;;;;;;;;21.80;91.30;;;;;;20903642;28;20033;-48
2021/07/17 13:47:35;;;;;;;1.13;0.80;;;22.20;91.50;;;;;;20918645;28;19913;-51
2021/07/17 13:57:42;;;;;;;2.75;1.00;;;23.30;90.10;;;;;;20916954;28;20049;-47
2021/07/17 14:07:44;;;;;;;1.10;1.00;;;22.80;89.10;;;;;;20918118;28;20087;-46
2021/07/17 14:17:46;;;;;;;1.05;0.80;;;22.20;90.50;;;;;;20916548;28;20090;-46
2021/07/17 14:27:48;;;;;;;1.08;0.90;;;21.90;90.90;;;;;;20916255;28;20044;-48
2021/07/17 14:37:51;;;;;;;2.22;0.95;;;22.30;90.80;;;;;;20909412;28;20040;-46
2021/07/17 14:47:53;;;;;;;1.10;1.00;;;23.50;90.50;;;;;;20916100;28;20055;-52
2021/07/17 14:57:55;;;;;;;1.92;1.00;;;24.10;85.00;;;;;;20913400;28;20583;-47
2021/07/17 15:07:57;;;;;;;1.70;1.30;;;23.70;86.10;;;;;;20912314;28;20478;-47
2021/07/17 15:17:58;;;;;;;0.88;0.65;;;23.40;86.50;;;;;;20913331;28;20032;-46
2021/07/17 15:28:00;;;;;;;1.70;0.95;;;24.10;84.70;;;;;;20911227;28;20029;-48
2021/07/17 15:38:02;;;;;;;0.95;0.80;;;22.60;86.30;;;;;;20912361;28;20482;-46
2021/07/17 15:48:04;;;;;;;1.20;0.88;;;22.30;91.40;;;;;;20908545;28;20106;-47
2021/07/17 15:58:06;;;;;;;0.57;0.47;;;23.80;85.40;;;;;;20909427;28;20048;-49
2021/07/17 16:08:08;;;;;;;0.82;0.63;;;23.50;87.70;;;;;;20909587;28;20032;-46
2021/07/17 16:18:11;;;;;;;1.17;0.85;;;23.20;87.50;;;;;;20905659;28;20055;-48
2021/07/17 16:28:12;;;;;;;1.25;0.85;;;22.40;91.00;;;;;;20905851;28;20074;-50
2021/07/17 16:38:15;;;;;;;0.90;0.77;;;22.00;91.30;;;;;;20905270;28;20029;-46
2021/07/17 16:48:17;;;;;;;0.60;0.52;;;21.90;90.50;;;;;;20903156;28;20033;-50
2021/07/17 16:58:19;;;;;;;2.17;0.90;;;21.70;96.30;;;;;;20905528;28;20091;-50
2021/07/17 17:08:21;;;;;;;1.05;0.80;;;21.80;92.70;;;;;;20904619;28;20033;-47
2021/07/17 17:18:24;;;;;;;1.83;0.70;;;22.00;95.70;;;;;;20913370;28;20036;-49
2021/07/17 17:28:27;;;;;;;2.03;0.60;;;21.60;91.80;;;;;;20918221;28;20036;-49
2021/07/17 17:38:28;;;;;;;1.65;0.70;;;21.00;93.10;;;;;;20918664;28;20470;-48
2021/07/17 17:48:30;;;;;;;1.67;0.95;;;20.30;97.70;;;;;;20919933;28;20037;-48
2021/07/17 17:58:32;;;;;;;1.50;0.90;;;19.80;98.00;;;;;;20916291;28;20079;-48
2021/07/17 18:08:34;;;;;;;1.02;0.85;;;19.50;98.40;;;;;;20915293;28;20029;-46
2021/07/17 18:18:36;;;;;;;1.02;0.73;;;19.50;95.00;;;;;;20914569;28;20033;-46
2021/07/17 18:28:38;;;;;;;0.93;0.65;;;19.50;96.80;;;;;;20912925;28;20040;-47
2021/07/17 18:38:39;;;;;;;1.77;0.90;;;19.10;96.70;;;;;;20913216;28;20041;-49
2021/07/17 18:48:41;;;;;;;1.00;0.80;;;18.90;97.90;;;;;;20912481;28;20421;-46
2021/07/17 18:58:44;;;;;;;1.75;0.80;;;18.50;96.20;;;;;;20911965;28;20037;-47
2021/07/17 19:08:46;;;;;;;1.17;0.98;;;18.90;95.60;;;;;;20910674;28;20412;-50
2021/07/17 19:18:49;;;;;;;0.65;0.50;;;18.60;96.80;;;;;;20890402;28;20103;-45
2021/07/17 19:28:52;;;;;;;1.38;0.75;;;18.10;98.00;;;;;;20908238;28;20106;-45
2021/07/17 19:38:56;;;;;;;1.83;0.60;;;18.00;98.10;;;;;;20907821;28;20033;-45
2021/07/17 19:48:59;;;;;;;1.27;0.70;;;18.10;97.30;;;;;;20906537;28;20033;-46
2021/07/17 19:59:01;;;;;;;0.88;0.63;;;18.50;96.70;;;;;;20905820;28;20071;-46
2021/07/17 20:09:03;;;;;;;0.70;0.52;;;18.60;96.40;;;;;;20905768;28;20037;-45
2021/07/17 20:19:05;;;;;;;0.85;0.60;;;18.30;97.20;;;;;;20905455;28;20098;-47
2021/07/17 20:29:08;;;;;;;0.68;0.68;;;18.00;98.80;;;;;;20904784;28;20103;-45
2021/07/17 20:39:10;;;;;;;0.40;0.32;;;18.00;98.00;;;;;;20905410;28;20045;-49
2021/07/17 20:49:17;;;;;;;0.55;0.30;;;18.10;97.30;;;;;;20906023;28;20467;-47
2021/07/17 20:59:19;;;;;;;0.63;0.38;;;17.90;98.30;;;;;;20921841;28;20057;-48
2021/07/17 21:09:21;;;;;;;0.60;0.40;;;17.70;98.00;;;;;;20920320;28;20037;-46
2021/07/17 21:19:23;;;;;;;0.47;0.30;;;17.60;98.60;;;;;;20918894;28;20029;-48
2021/07/17 21:29:26;;;;;;;3.13;0.43;;;17.20;98.70;;;;;;20918925;28;20166;-45
2021/07/17 21:39:28;;;;;;;2.35;0.30;;;17.10;99.40;;;;;;20917994;28;20083;-45
2021/07/17 21:49:31;;;;;;;0.60;0.28;;;17.10;99.10;;;;;;20918037;28;20037;-47
2021/07/17 21:59:32;;;;;;;0.32;0.30;;;17.30;98.80;;;;;;20915289;28;20126;-47
2021/07/17 22:09:34;;;;;;;0.70;0.30;;;17.60;98.20;;;;;;20915342;28;20086;-49
2021/07/17 22:19:36;;;;;;;0.77;0.40;;;17.40;99.00;;;;;;20915168;28;20037;-48
2021/07/17 22:29:38;;;;;;;0.88;0.40;;;17.00;99.40;;;;;;20914182;28;20361;-47
2021/07/17 22:39:39;;;;;;;0.40;0.20;;;17.10;99.50;;;;;;20912242;28;20063;-47
2021/07/17 22:49:41;;;;;;;0.70;0.45;;;17.30;99.00;;;;;;20912857;28;20036;-48
2021/07/17 22:59:43;;;;;;;0.63;0.30;;;17.30;99.20;;;;;;20912605;28;20045;-47
2021/07/17 23:09:45;;;;;;;1.00;0.30;;;17.50;98.30;;;;;;20912399;28;20029;-45
2021/07/17 23:19:46;;;;;;;0.30;0.20;;;17.50;98.30;;;;;;20911633;28;20106;-46
2021/07/17 23:29:48;;;;;;;0.75;0.30;;;17.10;99.40;;;;;;20912776;28;20033;-46
2021/07/17 23:39:50;;;;;;;0.70;0.40;;;17.20;99.00;;;;;;20911110;28;20364;-46
2021/07/17 23:49:51;;;;;;;1.58;0.40;;;17.20;99.30;;;;;;20908693;28;20041;-45
2021/07/17 23:59:53;;;;;;;0.82;0.30;;;16.90;99.70;;;;;;20908470;28;20041;-49
